Time;durP1;ratioP1;P1;durP2;ratioP2;P2;SDS_P1;SDS_P2;PMS_P1;PMS_P2;Temp;Humidity;BMP_temperature;BMP_pressure;BME280_temperature;BME280_humidity;BME280_pressure;Samples;Min_cycle;Max_cycle;Signal;HPM_P1;HPM_P2
2021/12/14 00:01:22;;;;;;;13.80;9.73;;;;;;;1.81;98.49;95243.91;5073933;28;20437;-77
2021/12/14 00:03:52;;;;;;;10.43;7.80;;;;;;;1.77;98.59;95253.56;5073852;28;20877;-77
2021/12/14 00:06:22;;;;;;;10.67;8.37;;;;;;;1.76;98.66;95246.69;5073656;28;20950;-77
2021/12/14 00:08:55;;;;;;;12.70;8.07;;;;;;;1.77;98.00;95250.13;5073641;28;20451;-76
2021/12/14 00:11:34;;;;;;;19.93;9.90;;;;;;;1.77;98.34;95253.56;5073611;28;20436;-77
2021/12/14 00:14:24;;;;;;;17.70;9.10;;;;;;;1.81;97.99;95249.91;5073588;28;20480;-76
2021/12/14 00:16:57;;;;;;;17.43;9.90;;;;;;;1.85;97.64;95255.78;5073602;28;20480;-77
2021/12/14 00:19:25;;;;;;;10.25;7.25;;;;;;;1.79;97.59;95245.72;5073573;28;20452;-77
2021/12/14 00:21:54;;;;;;;20.00;8.98;;;;;;;1.83;97.54;95255.03;5073331;28;20200;-77
2021/12/14 00:24:26;;;;;;;9.20;7.50;;;;;;;1.82;97.66;95245.59;5073579;28;20202;-77
2021/12/14 00:26:55;;;;;;;11.77;8.15;;;;;;;1.81;97.87;95262.84;5072793;28;20455;-77
2021/12/14 00:29:28;;;;;;;11.10;7.87;;;;;;;1.79;97.39;95262.09;5072853;28;20209;-76
2021/12/14 00:31:57;;;;;;;9.83;7.20;;;;;;;1.83;97.13;95262.78;5073445;28;20444;-77
2021/12/14 00:34:36;;;;;;;13.10;8.80;;;;;;;1.84;97.74;95270.47;5073298;28;20449;-76
2021/12/14 00:37:04;;;;;;;16.45;10.63;;;;;;;1.80;97.57;95266.34;5072770;28;21032;-76
2021/12/14 00:39:32;;;;;;;11.40;8.90;;;;;;;1.73;97.92;95261.50;5073318;28;20303;-77
2021/12/14 00:41:59;;;;;;;18.38;10.68;;;;;;;1.74;98.04;95263.19;5073265;28;20444;-77
2021/12/14 00:44:27;;;;;;;10.70;7.77;;;;;;;1.79;98.07;95263.84;5073677;28;20212;-77
2021/12/14 00:46:53;;;;;;;14.38;9.55;;;;;;;1.79;97.93;95256.06;5037937;28;20444;-77
2021/12/14 00:49:21;;;;;;;10.68;8.05;;;;;;;1.73;97.73;95267.50;5073333;28;20204;-76
2021/12/14 00:51:48;;;;;;;8.48;6.75;;;;;;;1.73;98.27;95277.00;5073201;28;20208;-78
2021/12/14 00:54:16;;;;;;;12.48;8.82;;;;;;;1.73;97.85;95267.50;5072250;28;20198;-77
2021/12/14 00:56:48;;;;;;;10.10;7.80;;;;;;;1.74;98.18;95264.03;5072325;28;20232;-77
2021/12/14 00:59:16;;;;;;;11.20;8.80;;;;;;;1.70;97.75;95265.06;5072685;28;20565;-77
2021/12/14 01:01:48;;;;;;;8.43;7.35;;;;;;;1.77;98.49;95268.25;5037580;28;20455;-76
2021/12/14 01:04:18;;;;;;;12.23;7.77;;;;;;;1.72;98.14;95272.75;5072702;28;20205;-77
2021/12/14 01:06:46;;;;;;;16.45;8.95;;;;;;;1.73;97.99;95266.66;5072739;28;20436;-77
2021/12/14 01:09:14;;;;;;;17.92;9.48;;;;;;;1.72;97.99;95270.16;5072771;28;20610;-77
2021/12/14 01:11:45;;;;;;;14.68;8.82;;;;;;;1.71;98.08;95268.47;5072570;28;20225;-77
2021/12/14 01:14:18;;;;;;;12.87;9.23;;;;;;;1.68;98.16;95258.28;5072612;28;20201;-77
2021/12/14 01:17:10;;;;;;;14.90;9.43;;;;;;;1.67;98.39;95267.78;5072665;28;20519;-77
2021/12/14 01:19:38;;;;;;;12.75;8.02;;;;;;;1.70;98.53;95267.66;5044325;28;20198;-77
2021/12/14 01:22:20;;;;;;;16.75;7.80;;;;;;;1.75;98.22;95264.88;5073139;28;20212;-78
2021/12/14 01:25:03;;;;;;;15.33;9.30;;;;;;;1.76;98.45;95272.56;5072863;28;20209;-77
2021/12/14 01:27:39;;;;;;;12.20;8.63;;;;;;;1.74;98.02;95261.47;5073203;28;20953;-77
2021/12/14 01:30:15;;;;;;;13.20;8.43;;;;;;;1.77;97.81;95260.47;5073186;28;20518;-77
2021/12/14 01:32:46;;;;;;;21.80;10.53;;;;;;;1.79;98.13;95264.66;5073109;28;20528;-77
2021/12/14 01:35:15;;;;;;;20.77;10.37;;;;;;;1.81;97.83;95265.44;5072685;28;20856;-76
2021/12/14 01:37:59;;;;;;;14.90;9.60;;;;;;;1.81;97.60;95275.78;5072745;28;20828;-77
2021/12/14 01:40:53;;;;;;;9.83;8.30;;;;;;;1.76;98.07;95272.56;5040508;28;20444;-77
2021/12/14 01:43:18;;;;;;;13.93;9.10;;;;;;;1.79;98.03;95269.00;5072276;28;20428;-76
2021/12/14 01:45:47;;;;;;;15.57;9.63;;;;;;;1.74;98.21;95264.03;5072372;28;20804;-77
2021/12/14 01:48:15;;;;;;;16.40;9.97;;;;;;;1.72;98.53;95263.25;5072614;28;20452;-77
2021/12/14 01:50:47;;;;;;;11.90;8.20;;;;;;;1.75;98.26;95252.78;5072381;28;20443;-77
2021/12/14 01:53:15;;;;;;;15.70;9.17;;;;;;;1.83;98.28;95266.22;5072751;28;20933;-77
2021/12/14 01:55:50;;;;;;;13.18;8.80;;;;;;;1.80;98.22;95261.19;5037224;28;20508;-76
2021/12/14 01:58:19;;;;;;;14.27;9.40;;;;;;;1.79;98.13;95267.25;5072638;28;20207;-77
2021/12/14 02:00:53;;;;;;;11.27;8.47;;;;;;;1.80;98.05;95263.75;5072568;28;20440;-77
2021/12/14 02:03:21;;;;;;;8.90;6.97;;;;;;;1.80;98.12;95263.75;5072430;28;20954;-77
2021/12/14 02:05:53;;;;;;;11.00;7.95;;;;;;;1.79;98.41;95267.25;5072381;28;20965;-77
2021/12/14 02:08:25;;;;;;;9.65;8.10;;;;;;;1.88;98.54;95266.00;5072297;28;20228;-76
2021/12/14 02:10:53;;;;;;;10.98;8.75;;;;;;;1.90;98.20;95264.19;5072539;28;20210;-77
2021/12/14 02:13:26;;;;;;;13.50;9.05;;;;;;;1.89;97.89;95265.09;5071913;28;20246;-76
2021/12/14 02:15:55;;;;;;;8.98;7.70;;;;;;;1.87;98.38;95266.91;5072545;28;20194;-77
2021/12/14 02:18:24;;;;;;;10.13;8.30;;;;;;;1.83;98.49;95262.78;5072220;28;20202;-77
2021/12/14 02:20:56;;;;;;;9.87;8.23;;;;;;;1.85;98.77;95266.13;5055490;28;20493;-77
2021/12/14 02:23:23;;;;;;;9.10;7.90;;;;;;;1.85;97.88;95261.81;5075818;28;20812;-77
2021/12/14 02:25:51;;;;;;;10.53;8.60;;;;;;;1.90;98.26;95269.34;5076077;28;20443;-77
2021/12/14 02:28:20;;;;;;;12.90;8.93;;;;;;;1.84;98.31;95267.88;5076354;28;20444;-77
2021/12/14 02:30:49;;;;;;;9.63;7.40;;;;;;;1.77;98.74;95265.66;5076331;28;20576;-76
2021/12/14 02:33:21;;;;;;;9.03;7.10;;;;;;;1.82;98.76;95271.47;5056911;28;20439;-77
2021/12/14 02:35:49;;;;;;;9.67;8.17;;;;;;;1.86;98.86;95263.47;5075520;28;20463;-77
2021/12/14 02:38:19;;;;;;;13.00;9.23;;;;;;;1.87;98.79;95266.91;5075423;28;20437;-76
2021/12/14 02:40:57;;;;;;;10.70;7.13;;;;;;;1.95;98.69;95266.56;5075710;28;20289;-77
2021/12/14 02:43:28;;;;;;;9.43;7.43;;;;;;;1.95;98.55;95280.34;5075618;28;20449;-77
2021/12/14 02:46:04;;;;;;;8.25;7.45;;;;;;;1.94;98.41;95272.63;5075106;28;20666;-77
2021/12/14 02:48:31;;;;;;;9.10;6.87;;;;;;;1.96;98.31;95274.25;5075062;28;20197;-76
2021/12/14 02:51:06;;;;;;;6.67;5.93;;;;;;;1.93;98.82;95270.97;5075589;28;20455;-76
2021/12/14 02:53:35;;;;;;;6.67;5.97;;;;;;;1.87;98.54;95269.50;5056781;28;20437;-77
2021/12/14 02:56:02;;;;;;;7.03;6.30;;;;;;;1.80;99.33;95279.28;5076153;28;20444;-77
2021/12/14 02:58:28;;;;;;;7.60;6.28;;;;;;;1.80;99.77;95275.84;5075556;28;20463;-76
2021/12/14 03:00:58;;;;;;;7.13;6.23;;;;;;;1.86;100.00;95271.25;5075636;28;20206;-76
2021/12/14 03:03:26;;;;;;;7.37;5.83;;;;;;;1.89;100.00;95278.03;5075013;28;20448;-77
2021/12/14 03:05:53;;;;;;;6.93;5.77;;;;;;;1.90;99.66;95276.28;5075599;28;20452;-77
2021/12/14 03:08:22;;;;;;;7.57;6.30;;;;;;;1.88;100.00;95271.16;5075019;28;20814;-77
2021/12/14 03:11:10;;;;;;;7.87;7.07;;;;;;;1.90;100.00;95276.28;5074905;28;20451;-77
2021/12/14 03:13:39;;;;;;;7.40;5.40;;;;;;;1.88;100.00;95275.50;5075232;28;20484;-76
2021/12/14 03:16:12;;;;;;;8.05;7.22;;;;;;;1.87;100.00;95274.66;5074730;28;20198;-77
2021/12/14 03:18:44;;;;;;;8.48;6.80;;;;;;;1.90;100.00;95278.88;5074808;28;20202;-77
2021/12/14 03:21:13;;;;;;;9.60;7.23;;;;;;;1.91;100.00;95276.22;5075001;28;20194;-77
2021/12/14 03:23:42;;;;;;;7.20;6.50;;;;;;;1.94;100.00;95277.81;5074811;28;20448;-76
2021/12/14 03:26:14;;;;;;;7.33;6.30;;;;;;;1.89;99.60;95282.38;5074575;28;20535;-77
2021/12/14 03:28:45;;;;;;;10.25;7.82;;;;;;;1.89;100.00;95290.97;5074838;28;20450;-77
2021/12/14 03:31:27;;;;;;;11.10;6.17;;;;;;;1.99;100.00;95289.63;5074856;28;20676;-76
2021/12/14 03:33:59;;;;;;;6.67;5.83;;;;;;;1.96;100.00;95284.59;5039308;28;20449;-76
2021/12/14 03:36:30;;;;;;;6.70;5.83;;;;;;;1.89;100.00;95288.38;5074455;28;20476;-76
2021/12/14 03:39:06;;;;;;;7.53;6.40;;;;;;;1.89;100.00;95285.78;5074214;28;20784;-76
2021/12/14 03:41:39;;;;;;;6.33;5.63;;;;;;;1.78;100.00;95286.28;5074490;28;20448;-77
2021/12/14 03:44:08;;;;;;;11.50;6.53;;;;;;;1.79;100.00;95285.38;5074314;28;20452;-77
2021/12/14 03:46:42;;;;;;;8.30;6.80;;;;;;;1.87;100.00;95292.78;5074334;28;20465;-77
2021/12/14 03:49:10;;;;;;;7.57;6.77;;;;;;;1.87;100.00;95290.19;5074166;28;20440;-76
2021/12/14 03:51:37;;;;;;;12.75;8.38;;;;;;;1.79;100.00;95285.38;5074266;28;20942;-76
2021/12/14 03:54:04;;;;;;;7.53;6.83;;;;;;;1.81;100.00;95285.31;5074245;28;20206;-76
2021/12/14 03:56:31;;;;;;;9.80;7.50;;;;;;;1.79;100.00;95292.28;5074302;28;20828;-76
2021/12/14 03:58:59;;;;;;;9.43;8.13;;;;;;;1.82;100.00;95287.81;5074171;28;20804;-77
2021/12/14 04:01:29;;;;;;;8.35;7.55;;;;;;;1.84;100.00;95293.75;5074163;28;20441;-76
2021/12/14 04:04:00;;;;;;;9.13;7.20;;;;;;;1.79;100.00;95290.53;5074026;28;20198;-77
2021/12/14 04:06:28;;;;;;;10.83;8.17;;;;;;;1.78;100.00;95300.97;5074201;28;20449;-77
2021/12/14 04:08:55;;;;;;;9.10;7.83;;;;;;;1.77;100.00;95296.69;5038756;28;20448;-77
2021/12/14 04:11:22;;;;;;;9.60;7.97;;;;;;;1.77;100.00;95300.13;5073869;28;20453;-77
2021/12/14 04:13:53;;;;;;;13.67;10.03;;;;;;;1.75;100.00;95301.94;5073410;28;20476;-77
2021/12/14 04:16:24;;;;;;;12.02;8.52;;;;;;;1.77;100.00;95301.88;5073457;28;20939;-76
2021/12/14 04:18:51;;;;;;;11.15;7.75;;;;;;;1.70;100.00;95301.28;5073962;28;20202;-77
2021/12/14 04:21:20;;;;;;;8.30;7.10;;;;;;;1.64;100.00;95304.13;5074026;28;20198;-76
2021/12/14 04:23:51;;;;;;;8.35;7.22;;;;;;;1.60;100.00;95305.19;5073845;28;20526;-76
2021/12/14 04:26:18;;;;;;;11.20;8.27;;;;;;;1.67;100.00;95308.31;5074559;28;20201;-76
2021/12/14 04:28:49;;;;;;;12.05;8.15;;;;;;;1.71;100.00;95313.28;5039472;28;20459;-76
2021/12/14 04:31:16;;;;;;;8.10;7.30;;;;;;;1.68;100.00;95310.00;5074497;28;20209;-76
2021/12/14 04:33:46;;;;;;;12.75;8.40;;;;;;;1.64;100.00;95319.66;5074449;28;20441;-76
2021/12/14 04:36:18;;;;;;;10.75;8.65;;;;;;;1.64;100.00;95314.47;5074307;28;20202;-76
2021/12/14 04:38:51;;;;;;;10.82;8.75;;;;;;;1.74;100.00;95310.59;5074103;28;20217;-77
2021/12/14 04:52:29;;;;;;;11.60;9.73;;;;;;;1.67;100.00;95314.34;5073900;28;20415;-77
2021/12/14 04:54:59;;;;;;;10.63;8.20;;;;;;;1.60;100.00;95314.69;5073953;28;20205;-77
2021/12/14 04:57:30;;;;;;;8.83;7.83;;;;;;;1.62;100.00;95318.88;5073755;28;20218;-77
2021/12/14 05:00:01;;;;;;;17.35;10.10;;;;;;;1.67;100.00;95311.75;5073652;28;20436;-77
2021/12/14 05:02:31;;;;;;;13.80;8.87;;;;;;;1.74;100.00;95320.13;5073810;28;20182;-78
2021/12/14 05:05:00;;;;;;;9.55;8.45;;;;;;;1.73;100.00;95324.41;5073532;28;20440;-77
2021/12/14 05:07:46;;;;;;;11.23;7.80;;;;;;;1.75;100.00;95326.97;5073944;28;20190;-75
2021/12/14 05:10:19;;;;;;;12.20;8.40;;;;;;;1.74;100.00;95326.13;5074054;28;20462;-77
2021/12/14 05:12:46;;;;;;;12.65;10.18;;;;;;;1.76;100.00;95331.22;5073707;28;21323;-77
2021/12/14 05:15:15;;;;;;;10.67;9.53;;;;;;;1.79;100.00;95326.75;5074338;28;20206;-77
2021/12/14 05:17:44;;;;;;;13.83;9.90;;;;;;;1.83;100.00;95322.28;5073803;28;20468;-77
2021/12/14 05:20:15;;;;;;;12.87;8.43;;;;;;;1.83;100.00;95325.72;5055727;28;20428;-77
2021/12/14 05:22:45;;;;;;;13.53;9.63;;;;;;;1.80;100.00;95327.59;5074374;28;20760;-77
2021/12/14 05:25:16;;;;;;;11.33;10.07;;;;;;;1.87;100.00;95326.41;5074274;28;20470;-78
2021/12/14 05:27:46;;;;;;;14.20;11.17;;;;;;;1.99;100.00;95327.63;5074104;28;20440;-77
2021/12/14 05:30:17;;;;;;;10.57;9.10;;;;;;;1.88;100.00;95329.84;5074045;28;20432;-76
2021/12/14 05:32:45;;;;;;;11.20;7.93;;;;;;;1.89;100.00;95326.34;5073857;28;20516;-78
2021/12/14 05:35:17;;;;;;;13.40;8.70;;;;;;;1.81;100.00;95327.53;5073962;28;20826;-77
2021/12/14 05:37:48;;;;;;;10.63;8.03;;;;;;;1.76;100.00;95329.47;5073319;28;20475;-77
2021/12/14 05:40:26;;;;;;;11.50;8.60;;;;;;;1.72;100.00;95332.25;5073446;28;20433;-77
2021/12/14 05:43:07;;;;;;;12.37;8.40;;;;;;;1.70;100.00;95334.91;5072673;28;20444;-77
2021/12/14 05:45:39;;;;;;;12.93;9.50;;;;;;;1.63;100.00;95335.25;5041525;28;20447;-77
2021/12/14 05:48:08;;;;;;;12.00;9.45;;;;;;;1.65;100.00;95339.44;5072081;28;20519;-77
2021/12/14 05:50:39;;;;;;;10.63;9.57;;;;;;;1.63;100.00;95341.25;5072407;28;20186;-76
2021/12/14 05:53:07;;;;;;;12.07;9.00;;;;;;;1.65;100.00;95352.38;5072226;28;20443;-77
2021/12/14 05:55:39;;;;;;;14.77;9.00;;;;;;;1.63;100.00;95345.59;5074144;28;20443;-77
2021/12/14 05:58:13;;;;;;;12.70;8.90;;;;;;;1.65;100.00;95347.19;5076481;28;20483;-78
2021/12/14 06:00:44;;;;;;;13.27;8.77;;;;;;;1.74;100.00;95352.00;5076611;28;20451;-80
2021/12/14 06:03:17;;;;;;;14.30;11.10;;;;;;;1.77;100.00;95354.44;5076943;28;20494;-78
2021/12/14 06:05:45;;;;;;;13.17;10.10;;;;;;;1.84;100.00;95366.19;5076782;28;20447;-78
2021/12/14 06:08:19;;;;;;;21.37;13.37;;;;;;;5.29;100.00;95361.91;5008781;28;20440;-80
2021/12/14 06:10:46;;;;;;;13.50;10.80;;;;;;;7.24;100.00;95363.16;5076151;28;20467;-79
2021/12/14 06:13:16;;;;;;;7.90;6.90;;;;;;;8.80;100.00;95365.75;5076145;28;21013;-77
2021/12/14 06:15:43;;;;;;;10.27;7.60;;;;;;;7.33;100.00;95369.56;5075873;28;20831;-77
2021/12/14 06:18:10;;;;;;;9.80;8.33;;;;;;;6.37;89.93;95373.81;5076213;28;20481;-78
2021/12/14 06:20:37;;;;;;;10.40;8.63;;;;;;;5.75;84.99;95380.94;5075961;28;20440;-78
2021/12/14 06:23:05;;;;;;;11.87;9.83;;;;;;;5.28;84.94;95383.66;5075850;28;20454;-78
2021/12/14 06:25:32;;;;;;;13.13;9.50;;;;;;;4.42;87.13;95379.69;5075958;28;20451;-78
2021/12/14 06:28:01;;;;;;;12.67;9.43;;;;;;;4.02;89.88;95375.72;5076704;28;20443;-77
2021/12/14 06:30:31;;;;;;;14.67;10.07;;;;;;;3.71;90.69;95385.06;5077115;28;20429;-78
2021/12/14 06:33:00;;;;;;;27.87;14.37;;;;;;;3.43;92.62;95376.97;5077145;28;20429;-78
2021/12/14 06:35:32;;;;;;;19.70;13.30;;;;;;;3.18;95.23;95376.47;5077899;28;20436;-78
2021/12/14 06:38:28;;;;;;;31.37;16.70;;;;;;;2.99;96.93;95392.09;5059682;28;20535;-76
2021/12/14 06:41:05;;;;;;;16.03;12.90;;;;;;;2.92;97.85;95396.72;5022185;28;20472;-78
2021/12/14 06:43:36;;;;;;;15.87;10.90;;;;;;;2.73;99.66;95393.31;5056201;28;20456;-78
2021/12/14 06:46:06;;;;;;;17.13;11.97;;;;;;;2.64;100.00;95388.56;5055484;28;20433;-78
2021/12/14 06:48:38;;;;;;;18.20;13.40;;;;;;;2.69;100.00;95399.53;5054916;28;20418;-79
2021/12/14 06:51:14;;;;;;;20.53;11.67;;;;;;;2.56;100.00;95401.00;5054283;28;20445;-78
2021/12/14 06:53:44;;;;;;;25.57;14.70;;;;;;;2.65;100.00;95400.59;5054622;28;20444;-77
2021/12/14 06:56:14;;;;;;;32.50;17.57;;;;;;;2.68;100.00;95403.88;5062840;28;20829;-77
2021/12/14 06:58:48;;;;;;;21.13;13.33;;;;;;;2.62;100.00;95408.50;5076502;28;20472;-77
2021/12/14 07:01:19;;;;;;;16.80;13.47;;;;;;;2.71;100.00;95411.50;5058452;28;20432;-77
2021/12/14 07:03:50;;;;;;;23.30;14.30;;;;;;;2.71;100.00;95410.69;5076664;28;20819;-77
2021/12/14 07:06:25;;;;;;;17.63;12.53;;;;;;;2.72;100.00;95415.78;5075884;28;20456;-78
2021/12/14 07:08:56;;;;;;;23.57;13.70;;;;;;;2.65;100.00;95413.56;5077224;28;20439;-78
2021/12/14 07:11:24;;;;;;;15.40;13.33;;;;;;;2.57;100.00;95423.41;5076417;28;20472;-78
2021/12/14 07:13:53;;;;;;;19.50;14.00;;;;;;;2.58;100.00;95417.31;5076837;28;20480;-77
2021/12/14 07:19:53;;;;;;;23.73;16.60;;;;;;;2.59;100.00;95422.41;5074676;28;21083;-78
2021/12/14 07:22:39;;;;;;;20.03;14.80;;;;;;;2.68;100.00;95421.19;5076834;28;20193;-79
2021/12/14 07:25:12;;;;;;;17.23;13.33;;;;;;;2.57;100.00;95415.63;5076210;28;20479;-78
2021/12/14 07:27:40;;;;;;;17.90;13.30;;;;;;;2.48;100.00;95422.06;5075798;28;20452;-79
2021/12/14 07:30:26;;;;;;;37.70;18.20;;;;;;;2.50;100.00;95420.25;5075625;28;20431;-79
2021/12/14 07:32:59;;;;;;;29.97;17.00;;;;;;;2.52;100.00;95423.59;5076048;28;20424;-79
2021/12/14 07:35:34;;;;;;;32.43;18.40;;;;;;;2.56;100.00;95430.31;5075701;28;20450;-78
2021/12/14 07:38:06;;;;;;;24.10;16.63;;;;;;;2.52;100.00;95435.72;5075673;28;20472;-78
2021/12/14 07:40:39;;;;;;;18.50;14.53;;;;;;;2.58;100.00;95431.09;5075622;28;20885;-77
2021/12/14 07:43:11;;;;;;;23.57;16.20;;;;;;;2.59;100.00;95432.78;5075614;28;20523;-78
2021/12/14 07:45:38;;;;;;;43.97;24.40;;;;;;;2.61;100.00;95433.56;5075127;28;20479;-78
2021/12/14 07:48:05;;;;;;;20.93;13.30;;;;;;;2.63;100.00;95436.94;5075151;28;20439;-78
2021/12/14 07:50:43;;;;;;;18.90;14.23;;;;;;;2.61;100.00;95443.09;5074900;28;20439;-78
2021/12/14 07:53:13;;;;;;;24.43;13.57;;;;;;;2.58;100.00;95443.22;5041066;28;20451;-78
2021/12/14 07:55:45;;;;;;;19.47;13.47;;;;;;;2.54;100.00;95442.50;5075379;28;20801;-78
2021/12/14 07:58:12;;;;;;;36.83;18.00;;;;;;;2.54;100.00;95444.25;5074434;28;21000;-78
2021/12/14 08:00:42;;;;;;;20.47;14.87;;;;;;;2.53;100.00;95446.00;5076700;28;20804;-78
2021/12/14 08:03:11;;;;;;;19.53;13.50;;;;;;;2.59;100.00;95450.91;5075820;28;21004;-78
2021/12/14 08:05:42;;;;;;;17.47;14.50;;;;;;;2.65;100.00;95455.84;5079084;28;20447;-78
2021/12/14 08:08:15;;;;;;;19.90;14.33;;;;;;;2.74;100.00;95452.81;5078557;28;20451;-78
2021/12/14 08:10:48;;;;;;;20.57;15.30;;;;;;;2.75;100.00;95453.66;5076765;28;20444;-78
2021/12/14 08:13:19;;;;;;;16.60;12.63;;;;;;;2.72;100.00;95456.41;5075689;28;20494;-78
2021/12/14 08:15:50;;;;;;;19.30;14.27;;;;;;;2.75;100.00;95464.03;5074435;28;20516;-78
2021/12/14 08:18:20;;;;;;;20.40;14.20;;;;;;;2.67;100.00;95459.19;5073423;28;20534;-78
2021/12/14 08:20:52;;;;;;;26.20;13.03;;;;;;;2.73;100.00;95465.84;5074104;28;20440;-78
2021/12/14 08:23:22;;;;;;;18.23;12.83;;;;;;;2.75;100.00;95461.44;5075374;28;20448;-78
2021/12/14 08:25:53;;;;;;;17.90;13.33;;;;;;;2.78;100.00;95461.31;5077101;28;20432;-78
2021/12/14 08:28:21;;;;;;;13.40;12.10;;;;;;;2.84;100.00;95466.19;5074091;28;20559;-78
2021/12/14 08:30:56;;;;;;;22.20;14.27;;;;;;;2.88;100.00;95465.13;5073579;28;20956;-78
2021/12/14 08:33:26;;;;;;;29.23;18.40;;;;;;;2.95;100.00;95463.97;5073172;28;20455;-78
2021/12/14 08:35:55;;;;;;;28.60;17.50;;;;;;;3.04;100.00;95465.28;5073151;28;20526;-79
2021/12/14 08:38:22;;;;;;;22.67;16.70;;;;;;;3.19;100.00;95461.16;5072857;28;20490;-78
2021/12/14 08:40:56;;;;;;;23.67;16.83;;;;;;;3.26;100.00;95455.63;5073113;28;20448;-78
2021/12/14 08:43:31;;;;;;;19.73;15.87;;;;;;;3.29;100.00;95463.25;5073183;28;20934;-78
2021/12/14 08:46:02;;;;;;;21.17;16.03;;;;;;;3.40;100.00;95452.34;5073615;28;20447;-78
2021/12/14 08:48:32;;;;;;;18.67;14.57;;;;;;;3.49;100.00;95454.53;5037879;28;20938;-78
2021/12/14 08:51:02;;;;;;;17.30;14.73;;;;;;;3.55;100.00;95453.38;5073095;28;20807;-78
2021/12/14 08:53:36;;;;;;;18.90;14.20;;;;;;;3.56;100.00;95460.25;5054217;28;20429;-78
2021/12/14 08:56:08;;;;;;;21.07;13.30;;;;;;;3.52;99.90;95451.78;5073025;28;20444;-78
2021/12/14 08:58:35;;;;;;;24.23;16.10;;;;;;;3.53;99.75;95458.66;5037687;28;20491;-78
2021/12/14 09:01:09;;;;;;;33.60;19.87;;;;;;;3.57;100.00;95454.97;5073152;28;20895;-78
2021/12/14 09:03:43;;;;;;;23.63;17.60;;;;;;;3.64;100.00;95450.34;5072428;28;20448;-79
2021/12/14 09:06:18;;;;;;;19.97;15.20;;;;;;;3.67;100.00;95448.41;5073084;28;20843;-79
2021/12/14 09:08:48;;;;;;;24.87;17.20;;;;;;;3.72;99.31;95445.59;5072973;28;20451;-78
2021/12/14 09:11:21;;;;;;;24.30;19.13;;;;;;;3.83;100.00;95443.34;5054086;28;20811;-78
2021/12/14 09:13:49;;;;;;;18.53;15.87;;;;;;;3.95;99.25;95434.06;5072455;28;20480;-79
2021/12/14 09:16:19;;;;;;;23.40;17.60;;;;;;;3.92;99.41;95437.66;5072817;28;20440;-79
2021/12/14 09:18:49;;;;;;;21.13;15.70;;;;;;;4.07;99.27;95436.06;5072596;28;20486;-79
2021/12/14 09:21:20;;;;;;;20.93;16.70;;;;;;;4.00;98.20;95430.31;5072842;28;20444;-79
2021/12/14 09:23:49;;;;;;;19.53;16.10;;;;;;;3.98;97.48;95426.97;5072550;28;20454;-79
2021/12/14 09:26:21;;;;;;;19.23;16.43;;;;;;;4.02;98.00;95427.66;5053619;28;20432;-79
2021/12/14 09:28:48;;;;;;;17.87;15.43;;;;;;;3.96;97.66;95421.03;5073066;28;20447;-78
2021/12/14 09:31:19;;;;;;;19.23;16.03;;;;;;;3.96;97.76;95417.59;5077313;28;20447;-78
2021/12/14 09:33:47;;;;;;;19.40;15.23;;;;;;;3.93;98.13;95415.97;5077074;28;20444;-79
2021/12/14 09:36:15;;;;;;;21.67;18.10;;;;;;;3.97;98.20;95419.25;5076456;28;20445;-79
2021/12/14 09:38:45;;;;;;;19.87;15.50;;;;;;;3.96;98.64;95420.19;5076738;28;21016;-80
2021/12/14 09:41:17;;;;;;;23.00;18.43;;;;;;;4.04;97.99;95418.88;5076588;28;20523;-79
2021/12/14 09:43:47;;;;;;;18.67;15.13;;;;;;;4.00;98.25;95409.56;5076440;28;20811;-78
2021/12/14 09:46:15;;;;;;;25.10;18.23;;;;;;;4.01;97.14;95413.00;5076722;28;20538;-79
2021/12/14 09:48:46;;;;;;;19.83;17.17;;;;;;;3.99;97.39;95417.44;5076177;28;20459;-78
2021/12/14 09:51:19;;;;;;;20.17;15.87;;;;;;;3.97;97.76;95414.06;5076523;28;20444;-79
2021/12/14 09:53:49;;;;;;;17.80;14.53;;;;;;;3.90;97.60;95410.94;5076352;28;20451;-79
2021/12/14 09:56:19;;;;;;;22.10;17.73;;;;;;;3.87;98.27;95411.09;5076324;28;20455;-79
2021/12/14 09:58:50;;;;;;;16.63;14.23;;;;;;;3.87;98.06;95403.31;5076430;28;20494;-79
2021/12/14 10:01:21;;;;;;;20.00;14.43;;;;;;;3.80;98.26;95403.72;5076341;28;20467;-79
2021/12/14 10:03:52;;;;;;;18.77;15.23;;;;;;;3.90;98.46;95399.72;5076849;28;20441;-78
2021/12/14 10:06:24;;;;;;;22.70;15.77;;;;;;;3.85;97.60;95404.31;5076362;28;20451;-78
2021/12/14 10:08:58;;;;;;;23.17;15.73;;;;;;;3.82;97.86;95404.47;5076120;28;20440;-79
2021/12/14 10:11:36;;;;;;;18.30;13.03;;;;;;;3.74;98.26;95403.06;5075613;28;20459;-78
2021/12/14 10:14:06;;;;;;;23.00;15.50;;;;;;;3.78;99.64;95403.78;5075860;28;20525;-79
2021/12/14 10:16:34;;;;;;;19.53;14.97;;;;;;;3.78;99.68;95393.41;5076125;28;20449;-78
2021/12/14 10:19:04;;;;;;;16.73;13.70;;;;;;;3.72;98.95;95394.53;5076234;28;20829;-78
2021/12/14 10:21:34;;;;;;;29.23;16.80;;;;;;;3.70;99.80;95391.19;5076623;28;20440;-78
2021/12/14 10:24:03;;;;;;;24.43;15.90;;;;;;;3.71;100.00;95397.19;5076990;28;20440;-79
2021/12/14 10:26:33;;;;;;;22.27;16.70;;;;;;;3.77;99.88;95396.09;5076302;28;20451;-78
2021/12/14 10:29:01;;;;;;;20.30;14.57;;;;;;;3.78;100.00;95389.97;5076184;28;20440;-79
2021/12/14 10:31:36;;;;;;;17.53;14.63;;;;;;;3.85;100.00;95394.78;5075622;28;20444;-78
2021/12/14 10:34:08;;;;;;;18.70;14.10;;;;;;;3.89;99.16;95395.44;5056497;28;20439;-78
2021/12/14 10:36:42;;;;;;;33.70;20.37;;;;;;;4.00;99.23;95391.38;5075700;28;20440;-79
2021/12/14 10:39:23;;;;;;;22.77;17.37;;;;;;;4.13;98.66;95393.38;5074838;28;21055;-79
2021/12/14 10:44:44;;;;;;;22.80;15.47;;;;;;;4.29;98.37;95391.63;5075589;28;20432;-79
2021/12/14 10:47:14;;;;;;;21.00;14.73;;;;;;;4.30;96.75;95396.75;5075583;28;20447;-78
2021/12/14 10:49:42;;;;;;;27.87;18.80;;;;;;;4.27;96.36;95394.31;5057142;28;20436;-79
2021/12/14 10:52:14;;;;;;;23.43;18.77;;;;;;;4.34;96.44;95397.47;5040368;28;20443;-79
2021/12/14 10:54:42;;;;;;;22.97;17.13;;;;;;;4.39;95.85;95394.63;5075922;28;20452;-79
2021/12/14 10:57:13;;;;;;;28.00;20.37;;;;;;;4.36;95.59;95395.63;5075618;28;20444;-78
2021/12/14 10:59:46;;;;;;;23.37;17.63;;;;;;;4.42;96.75;95390.09;5075295;28;20487;-78
2021/12/14 11:02:15;;;;;;;28.13;20.07;;;;;;;4.44;95.81;95392.59;5075004;28;20440;-79
2021/12/14 11:04:52;;;;;;;33.77;20.53;;;;;;;4.48;96.52;95387.16;5074175;28;20877;-79
2021/12/14 11:07:23;;;;;;;28.50;20.57;;;;;;;4.59;96.48;95387.41;5074791;28;20444;-79
2021/12/14 11:09:53;;;;;;;32.27;19.87;;;;;;;4.65;95.65;95386.28;5072271;28;20447;-79
2021/12/14 11:12:24;;;;;;;31.50;20.50;;;;;;;4.68;95.97;95385.28;5074792;28;20490;-79
2021/12/14 11:14:54;;;;;;;31.53;20.93;;;;;;;4.69;95.27;95381.75;5074896;28;20452;-79
2021/12/14 11:20:14;;;;;;;31.43;20.70;;;;;;;4.76;95.10;95377.88;5074384;28;20483;-79
2021/12/14 11:22:47;;;;;;;30.67;23.37;;;;;;;4.73;94.91;95371.09;5075046;28;20449;-79
2021/12/14 11:25:18;;;;;;;34.00;21.87;;;;;;;4.83;95.31;95374.88;5074517;28;20464;-79
2021/12/14 11:27:47;;;;;;;29.83;23.30;;;;;;;4.85;94.13;95379.97;5075083;28;20460;-79
2021/12/14 11:30:20;;;;;;;29.97;21.57;;;;;;;4.86;93.80;95379.06;5074445;28;20441;-79
2021/12/14 11:33:02;;;;;;;38.67;27.20;;;;;;;4.91;93.97;95375.28;5074767;28;20930;-79
2021/12/14 11:35:31;;;;;;;35.13;25.07;;;;;;;4.94;94.20;95372.53;5074322;28;20949;-79
2021/12/14 11:38:01;;;;;;;36.00;25.23;;;;;;;4.95;93.27;95366.41;5074246;28;20444;-78
2021/12/14 11:40:32;;;;;;;28.90;21.43;;;;;;;4.97;93.88;95366.31;5074459;28;20488;-79
2021/12/14 11:43:13;;;;;;;32.03;19.10;;;;;;;4.93;93.55;95370.84;5074160;28;20927;-78
2021/12/14 11:45:41;;;;;;;34.77;24.07;;;;;;;4.92;93.81;95366.59;5074113;28;20454;-78
2021/12/14 11:48:09;;;;;;;30.00;22.17;;;;;;;4.92;93.14;95369.19;5074392;28;20455;-78
2021/12/14 11:50:39;;;;;;;34.33;24.37;;;;;;;4.92;93.73;95366.59;5073946;28;20451;-78
2021/12/14 11:53:14;;;;;;;40.23;24.13;;;;;;;4.84;94.24;95355.75;5073004;28;20784;-78
2021/12/14 11:55:44;;;;;;;34.30;24.20;;;;;;;4.61;94.88;95354.38;5074194;28;20435;-78
2021/12/14 11:58:24;;;;;;;41.13;24.03;;;;;;;4.73;94.76;95358.09;5073861;28;20452;-78
2021/12/14 12:00:56;;;;;;;32.17;24.73;;;;;;;4.63;94.23;95354.34;5073904;28;20486;-78
2021/12/14 12:03:34;;;;;;;36.00;25.30;;;;;;;4.49;95.80;95355.06;5074149;28;20459;-78
2021/12/14 12:06:09;;;;;;;32.83;22.03;;;;;;;4.38;96.03;95356.56;5073943;28;20447;-79